Green Pond, New Jersey
Current Conditions -  °F | °C
As of 7:53 PM on Monday 26 Jan 2015 (Local Time) from KFWN Reporting Station
Haze Haze  
Wind Chill:   Ceiling: 3700
Heat Index: 20°   Visibility: 6mi
Dew Point: 14°   Wind: 10mph
Humidity: 78%   Direction: 30°NNE
Pressure: 29.85"   Gusts: NA
Location:  41.058°N, 74.4257°W
Report Text: KFWN 270053Z AUTO 03009KT 6SM HZ FEW024 BKN037 OVC070 M07/M10 A2985 RMK AO2 UPB2355E42SNE2355 SLP115 P0000 T10671100
Loading
Personal Weather Stations






























Interactive Weather Map New forecast layout! Learn more

10-Day Weather Forecast

Advertisements
Track Severe Weather on mobile